createdAt,value
2017-05-03T00:00:55.177Z,9.64
2017-05-03T00:01:56.611Z,9.52
2017-05-03T00:02:58.032Z,9.60
2017-05-03T00:03:59.453Z,9.53
2017-05-03T00:05:00.884Z,9.49
2017-05-03T00:06:02.303Z,9.58
2017-05-03T00:07:03.728Z,9.56
2017-05-03T00:08:05.156Z,9.58
2017-05-03T00:09:06.579Z,9.71
2017-05-03T00:10:08.002Z,9.56
2017-05-03T00:11:09.429Z,9.64
2017-05-03T00:12:10.844Z,9.79
2017-05-03T00:13:12.276Z,9.85
2017-05-03T00:14:13.701Z,9.81
2017-05-03T00:15:15.124Z,9.60
2017-05-03T00:16:16.548Z,9.60
2017-05-03T00:17:17.974Z,9.56
2017-05-03T00:18:19.399Z,9.56
2017-05-03T00:19:20.831Z,9.58
2017-05-03T00:20:22.270Z,9.50
2017-05-03T00:21:23.676Z,9.67
2017-05-03T00:22:25.100Z,9.70
2017-05-03T00:23:26.522Z,9.75
2017-05-03T00:24:27.940Z,9.49
2017-05-03T00:25:29.357Z,9.66
2017-05-03T00:26:30.778Z,9.81
2017-05-03T00:27:32.204Z,9.68
2017-05-03T00:28:33.632Z,9.85
2017-05-03T00:29:35.050Z,9.70
2017-05-03T00:30:36.479Z,9.73
2017-05-03T00:31:37.923Z,9.71
2017-05-03T00:32:39.335Z,9.66
2017-05-03T00:33:40.758Z,9.73
2017-05-03T00:34:42.185Z,9.43
2017-05-03T00:35:43.610Z,9.61
2017-05-03T00:36:45.041Z,9.68
2017-05-03T00:37:46.463Z,9.81
2017-05-03T00:38:47.886Z,10.01
2017-05-03T00:39:49.310Z,9.97
2017-05-03T00:40:50.743Z,9.97
2017-05-03T00:41:52.162Z,9.97
2017-05-03T00:42:53.592Z,9.86
2017-05-03T00:43:55.016Z,9.78
2017-05-03T00:44:56.436Z,9.81
2017-05-03T00:45:57.855Z,9.88
2017-05-03T00:46:59.275Z,9.85
2017-05-03T00:48:00.697Z,9.85
2017-05-03T00:49:02.111Z,9.81
2017-05-03T00:50:03.536Z,9.75
2017-05-03T00:51:04.953Z,9.86
2017-05-03T00:52:06.378Z,9.91
2017-05-03T00:53:07.798Z,9.94
2017-05-03T00:54:09.219Z,9.96
2017-05-03T00:55:10.643Z,9.97
2017-05-03T00:56:12.068Z,9.79
2017-05-03T00:57:13.488Z,9.70
2017-05-03T00:58:14.938Z,9.85
2017-05-03T00:59:16.358Z,10.04
2017-05-03T01:00:17.775Z,9.96
2017-05-03T01:01:19.206Z,10.06
2017-05-03T01:02:20.627Z,10.24
2017-05-03T01:03:22.051Z,9.96
2017-05-03T01:04:23.469Z,9.99
2017-05-03T01:05:24.891Z,10.12
2017-05-03T01:06:26.325Z,9.91
2017-05-03T01:07:27.739Z,10.07
2017-05-03T01:08:29.168Z,10.07
2017-05-03T01:09:30.587Z,9.96
2017-05-03T01:10:32.014Z,10.07
2017-05-03T01:11:33.436Z,10.09
2017-05-03T01:12:34.862Z,10.03
2017-05-03T01:13:36.281Z,10.10
2017-05-03T01:14:37.715Z,10.21
2017-05-03T01:15:39.140Z,10.12
2017-05-03T01:16:40.567Z,10.10
2017-05-03T01:17:41.987Z,9.97
2017-05-03T01:18:43.405Z,9.93
2017-05-03T01:19:44.837Z,10.14
2017-05-03T01:20:46.261Z,10.00
2017-05-03T01:21:47.677Z,9.94
2017-05-03T01:22:49.103Z,10.14
2017-05-03T01:23:50.520Z,9.99
2017-05-03T01:24:51.942Z,9.96
2017-05-03T01:25:53.365Z,9.86
2017-05-03T01:26:54.786Z,9.86
2017-05-03T01:27:56.204Z,9.96
2017-05-03T01:28:57.676Z,10.10
2017-05-03T01:29:59.052Z,10.21
2017-05-03T01:31:00.477Z,10.17
2017-05-03T01:32:01.900Z,10.30
2017-05-03T01:33:03.329Z,10.26
2017-05-03T01:34:04.750Z,10.04
2017-05-03T01:35:06.170Z,10.18
2017-05-03T01:36:07.589Z,10.09
2017-05-03T01:37:09.015Z,10.14
2017-05-03T01:38:10.437Z,10.17
2017-05-03T01:39:11.861Z,10.34
2017-05-03T01:40:13.281Z,10.36
2017-05-03T01:41:14.699Z,10.36
2017-05-03T01:42:16.120Z,10.37
2017-05-03T01:43:17.547Z,10.34
2017-05-03T01:44:18.978Z,10.22
2017-05-03T01:45:20.397Z,10.25
2017-05-03T01:46:21.838Z,10.17
2017-05-03T01:47:23.352Z,10.17
2017-05-03T01:48:24.771Z,10.18
2017-05-03T01:49:26.190Z,10.10
2017-05-03T01:50:27.620Z,10.26
2017-05-03T01:51:29.050Z,10.25
2017-05-03T01:52:30.472Z,10.30
2017-05-03T01:53:31.896Z,10.22
2017-05-03T01:54:33.328Z,10.12
2017-05-03T01:55:34.754Z,10.28
2017-05-03T01:56:36.179Z,10.30
2017-05-03T01:57:37.599Z,10.22
2017-05-03T01:58:39.025Z,10.30
2017-05-03T01:59:40.449Z,10.26
2017-05-03T02:00:41.881Z,10.24
2017-05-03T02:01:43.297Z,10.17
2017-05-03T02:02:44.715Z,10.25
2017-05-03T02:03:46.135Z,10.26
2017-05-03T02:04:47.571Z,10.18
2017-05-03T02:05:48.992Z,10.04
2017-05-03T02:06:50.417Z,10.04
2017-05-03T02:07:51.838Z,10.04
2017-05-03T02:08:53.257Z,10.28
2017-05-03T02:09:54.678Z,10.21
2017-05-03T02:10:56.099Z,10.22
2017-05-03T02:11:57.515Z,10.36
2017-05-03T02:12:58.942Z,10.12
2017-05-03T02:14:00.358Z,10.21
2017-05-03T02:15:01.787Z,10.17
2017-05-03T02:16:03.210Z,10.18
2017-05-03T02:17:04.634Z,10.03
2017-05-03T02:18:06.057Z,10.12
2017-05-03T02:19:07.485Z,10.25
2017-05-03T02:20:08.904Z,10.19
2017-05-03T02:21:10.328Z,10.21
2017-05-03T02:22:11.747Z,10.36
2017-05-03T02:23:13.166Z,10.33
2017-05-03T02:24:14.589Z,10.15
2017-05-03T02:25:16.013Z,10.32
2017-05-03T02:26:17.437Z,10.24
2017-05-03T02:27:18.860Z,10.28
2017-05-03T02:28:20.291Z,10.34
2017-05-03T02:29:21.713Z,10.40
2017-05-03T02:30:23.141Z,10.44
2017-05-03T02:31:24.563Z,10.30
2017-05-03T02:32:26.001Z,10.34
2017-05-03T02:33:27.415Z,10.30
2017-05-03T02:34:29.358Z,10.36
2017-05-03T02:35:30.776Z,10.36
2017-05-03T02:36:32.196Z,10.07
2017-05-03T02:37:33.619Z,9.93
2017-05-03T02:38:35.054Z,9.82
2017-05-03T02:39:36.478Z,10.10
2017-05-03T02:40:37.902Z,10.15
2017-05-03T02:41:39.330Z,10.15
2017-05-03T02:42:40.754Z,10.06
2017-05-03T02:43:42.176Z,9.93
2017-05-03T02:44:43.597Z,10.14
2017-05-03T02:45:45.017Z,10.26
2017-05-03T02:46:46.445Z,10.39
2017-05-03T02:47:47.872Z,10.39
2017-05-03T02:48:49.298Z,10.44
2017-05-03T02:49:50.727Z,10.52
2017-05-03T02:50:52.152Z,10.58
2017-05-03T02:51:53.576Z,10.53
2017-05-03T02:52:54.998Z,10.46
2017-05-03T02:53:56.419Z,10.40
2017-05-03T02:54:57.838Z,10.44
2017-05-03T02:55:59.257Z,10.40
2017-05-03T02:57:00.676Z,10.53
2017-05-03T02:58:02.101Z,10.53
2017-05-03T02:59:03.537Z,10.42
2017-05-03T03:00:04.959Z,10.43
2017-05-03T03:01:06.387Z,10.47
2017-05-03T03:02:07.815Z,10.65
2017-05-03T03:03:09.254Z,10.56
2017-05-03T03:04:10.669Z,10.32
2017-05-03T03:05:12.098Z,10.36
2017-05-03T03:06:13.541Z,10.25
2017-05-03T03:07:14.993Z,10.40
2017-05-03T03:08:16.397Z,10.42
2017-05-03T03:09:17.822Z,10.52
2017-05-03T03:10:19.251Z,10.43
2017-05-03T03:11:20.671Z,10.43
2017-05-03T03:12:22.090Z,10.60
2017-05-03T03:13:23.514Z,10.36
2017-05-03T03:14:24.936Z,10.25
2017-05-03T03:15:26.359Z,10.24
2017-05-03T03:16:27.771Z,10.33
2017-05-03T03:17:29.235Z,10.24
2017-05-03T03:18:30.621Z,10.46
2017-05-03T03:19:32.045Z,10.53
2017-05-03T03:20:33.461Z,10.39
2017-05-03T03:21:34.882Z,10.58
2017-05-03T03:22:36.302Z,10.55
2017-05-03T03:23:37.722Z,10.55
2017-05-03T03:24:39.152Z,10.52
2017-05-03T03:25:40.574Z,10.40
2017-05-03T03:26:41.991Z,10.71
2017-05-03T03:27:43.418Z,10.55
2017-05-03T03:28:44.849Z,10.33
2017-05-03T03:29:46.261Z,10.34
2017-05-03T03:30:47.690Z,10.53
2017-05-03T03:31:49.117Z,10.52
2017-05-03T03:32:50.546Z,10.32
2017-05-03T03:33:52.010Z,10.36
2017-05-03T03:34:53.445Z,10.51
2017-05-03T03:35:54.864Z,10.59
2017-05-03T03:36:56.288Z,10.51
2017-05-03T03:37:57.715Z,10.66
2017-05-03T03:38:59.143Z,10.47
2017-05-03T03:40:00.619Z,10.51
2017-05-03T03:41:02.082Z,10.39
2017-05-03T03:42:03.508Z,10.30
2017-05-03T03:43:04.928Z,10.33
2017-05-03T03:44:06.359Z,10.34
2017-05-03T03:45:07.776Z,10.33
2017-05-03T03:46:09.201Z,10.33
2017-05-03T03:47:10.617Z,10.34
2017-05-03T03:48:12.039Z,10.53
2017-05-03T03:49:13.461Z,10.52
2017-05-03T03:50:14.881Z,10.59
2017-05-03T03:51:16.307Z,10.46
2017-05-03T03:52:17.733Z,10.33
2017-05-03T03:53:19.157Z,10.47
2017-05-03T03:54:20.581Z,10.55
2017-05-03T03:55:22.004Z,10.56
2017-05-03T03:56:23.430Z,10.55
2017-05-03T03:57:24.846Z,10.56
2017-05-03T03:58:26.281Z,10.47
2017-05-03T03:59:27.703Z,10.56
2017-05-03T04:00:29.142Z,10.63
2017-05-03T04:01:30.572Z,10.59
2017-05-03T04:02:31.995Z,10.47
2017-05-03T04:03:33.433Z,10.66
2017-05-03T04:04:34.862Z,10.43
2017-05-03T04:05:36.286Z,10.42
2017-05-03T04:06:37.793Z,10.65
2017-05-03T04:07:39.221Z,10.68
2017-05-03T04:08:40.641Z,10.65
2017-05-03T04:09:42.063Z,10.74
2017-05-03T04:10:43.514Z,10.70
2017-05-03T04:11:44.982Z,10.76
2017-05-03T04:12:46.405Z,10.78
2017-05-03T04:13:47.827Z,10.76
2017-05-03T04:14:49.341Z,10.73
2017-05-03T04:15:50.769Z,10.66
2017-05-03T04:16:52.190Z,10.66
2017-05-03T04:17:53.617Z,10.73
2017-05-03T04:18:55.096Z,10.59
2017-05-03T04:19:56.518Z,10.76
2017-05-03T04:20:57.946Z,10.66
2017-05-03T04:21:59.371Z,10.55
2017-05-03T04:23:00.832Z,10.63
2017-05-03T04:24:02.219Z,10.55
2017-05-03T04:25:03.670Z,10.56
2017-05-03T04:26:05.164Z,10.51
2017-05-03T04:27:06.599Z,10.65
2017-05-03T04:28:08.021Z,10.66
2017-05-03T04:29:09.440Z,10.96
2017-05-03T04:30:10.863Z,10.89
2017-05-03T04:31:12.284Z,10.81
2017-05-03T04:32:13.708Z,10.77
2017-05-03T04:33:15.139Z,10.81
2017-05-03T04:34:16.566Z,10.56
2017-05-03T04:35:17.996Z,10.42
2017-05-03T04:36:19.421Z,10.68
2017-05-03T04:37:20.844Z,10.80
2017-05-03T04:38:22.272Z,10.70
2017-05-03T04:39:23.699Z,10.62
2017-05-03T04:40:25.124Z,10.55
2017-05-03T04:41:26.560Z,10.70
2017-05-03T04:42:27.988Z,10.78
2017-05-03T04:43:29.404Z,10.94
2017-05-03T04:44:30.839Z,10.80
2017-05-03T04:45:32.258Z,10.74
2017-05-03T04:46:33.680Z,10.80
2017-05-03T04:47:35.121Z,10.81
2017-05-03T04:48:36.546Z,10.65
2017-05-03T04:49:37.967Z,10.63
2017-05-03T04:50:39.399Z,10.71
2017-05-03T04:51:40.831Z,10.70
2017-05-03T04:52:42.248Z,10.92
2017-05-03T04:53:43.672Z,11.14
2017-05-03T04:54:45.099Z,11.27
2017-05-03T04:55:46.529Z,11.14
2017-05-03T04:56:47.945Z,11.11
2017-05-03T04:57:49.374Z,11.16
2017-05-03T04:58:50.798Z,11.24
2017-05-03T04:59:52.220Z,11.11
2017-05-03T05:00:53.651Z,11.14
2017-05-03T05:01:55.072Z,11.20
2017-05-03T05:02:56.499Z,11.19
2017-05-03T05:03:57.931Z,11.11
2017-05-03T05:04:59.368Z,11.06
2017-05-03T05:06:00.808Z,11.32
2017-05-03T05:07:02.227Z,11.06
2017-05-03T05:08:03.668Z,11.27
2017-05-03T05:09:05.089Z,11.28
2017-05-03T05:10:06.519Z,11.34
2017-05-03T05:11:07.952Z,11.38
2017-05-03T05:12:09.373Z,11.47
2017-05-03T05:13:10.798Z,10.99
2017-05-03T05:14:12.227Z,11.11
2017-05-03T05:15:13.654Z,11.38
2017-05-03T05:16:15.077Z,11.50
2017-05-03T05:17:16.509Z,11.49
2017-05-03T05:18:17.929Z,11.49
2017-05-03T05:19:19.363Z,11.61
2017-05-03T05:20:20.804Z,11.64
2017-05-03T05:21:22.234Z,11.71
2017-05-03T05:22:23.671Z,11.74
2017-05-03T05:23:25.100Z,11.67
2017-05-03T05:24:26.528Z,11.50
2017-05-03T05:25:27.949Z,11.50
2017-05-03T05:26:29.377Z,11.59
2017-05-03T05:27:30.800Z,11.56
2017-05-03T05:28:32.224Z,11.49
2017-05-03T05:29:33.654Z,11.64
2017-05-03T05:30:35.088Z,11.43
2017-05-03T05:31:36.525Z,11.31
2017-05-03T05:32:37.964Z,11.36
2017-05-03T05:33:39.392Z,11.14
2017-05-03T05:34:40.831Z,11.13
2017-05-03T05:35:42.253Z,10.95
2017-05-03T05:36:43.684Z,10.77
2017-05-03T05:37:45.121Z,10.70
2017-05-03T05:38:46.544Z,10.74
2017-05-03T05:39:47.980Z,10.83
2017-05-03T05:40:49.409Z,10.70
2017-05-03T05:41:50.838Z,10.89
2017-05-03T05:42:52.271Z,10.77
2017-05-03T05:43:53.696Z,10.78
2017-05-03T05:44:55.123Z,10.98
2017-05-03T05:45:56.551Z,11.16
2017-05-03T05:46:57.973Z,11.01
2017-05-03T05:47:59.406Z,10.52
2017-05-03T05:49:00.828Z,10.58
2017-05-03T05:50:02.266Z,10.73
2017-05-03T05:51:03.685Z,10.53
2017-05-03T05:52:05.109Z,10.53
2017-05-03T05:53:06.534Z,10.40
2017-05-03T05:54:07.960Z,10.51
2017-05-03T05:55:09.385Z,10.65
2017-05-03T05:56:10.812Z,10.66
2017-05-03T05:57:12.241Z,10.36
2017-05-03T05:58:13.667Z,10.12
2017-05-03T05:59:15.095Z,10.00
2017-05-03T06:00:16.521Z,10.09
2017-05-03T06:01:17.949Z,9.99
2017-05-03T06:02:19.378Z,9.88
2017-05-03T06:03:20.801Z,9.86
2017-05-03T06:04:22.223Z,9.94
2017-05-03T06:05:23.645Z,9.85
2017-05-03T06:06:25.066Z,9.76
2017-05-03T06:07:26.488Z,9.73
2017-05-03T06:08:27.909Z,9.93
2017-05-03T06:09:29.337Z,10.19
2017-05-03T06:10:30.773Z,10.21
2017-05-03T06:11:32.200Z,10.51
2017-05-03T06:12:33.635Z,10.43
2017-05-03T06:13:35.068Z,10.51
2017-05-03T06:14:36.494Z,10.40
2017-05-03T06:15:37.921Z,10.18
2017-05-03T06:16:39.352Z,10.40
2017-05-03T06:17:40.783Z,10.33
2017-05-03T06:18:42.223Z,10.25
2017-05-03T06:19:43.661Z,10.40
2017-05-03T06:20:45.090Z,10.52
2017-05-03T06:21:46.516Z,10.59
2017-05-03T06:22:47.953Z,10.71
2017-05-03T06:23:49.398Z,10.80
2017-05-03T06:24:50.819Z,10.81
2017-05-03T06:25:52.245Z,10.78
2017-05-03T06:26:53.677Z,10.98
2017-05-03T06:27:55.100Z,10.91
2017-05-03T06:28:56.527Z,10.88
2017-05-03T06:29:57.967Z,10.95
2017-05-03T06:30:59.394Z,10.94
2017-05-03T06:32:00.822Z,10.86
2017-05-03T06:33:02.244Z,10.91
2017-05-03T06:34:03.682Z,11.03
2017-05-03T06:35:05.133Z,10.81
2017-05-03T06:36:06.563Z,10.96
2017-05-03T06:37:07.993Z,10.84
2017-05-03T06:38:09.424Z,10.84
2017-05-03T06:39:10.850Z,10.66
2017-05-03T06:40:12.290Z,10.62
2017-05-03T06:41:13.727Z,10.71
2017-05-03T06:42:15.153Z,10.89
2017-05-03T06:43:16.585Z,10.95
2017-05-03T06:44:18.013Z,10.92
2017-05-03T06:45:19.437Z,10.74
2017-05-03T06:46:20.875Z,10.78
2017-05-03T06:47:22.301Z,10.73
2017-05-03T06:48:23.746Z,10.68
2017-05-03T06:49:25.171Z,10.36
2017-05-03T06:50:26.605Z,10.30
2017-05-03T06:51:28.034Z,10.52
2017-05-03T06:52:29.458Z,10.73
2017-05-03T06:53:30.882Z,10.68
2017-05-03T06:54:32.314Z,10.95
2017-05-03T06:55:33.742Z,10.98
2017-05-03T06:56:35.172Z,11.07
2017-05-03T06:57:36.597Z,11.21
2017-05-03T06:58:38.023Z,11.07
2017-05-03T06:59:39.448Z,11.19
2017-05-03T07:00:40.885Z,11.03
2017-05-03T07:01:42.305Z,10.96
2017-05-03T07:02:43.730Z,10.66
2017-05-03T07:03:45.164Z,10.56
2017-05-03T07:04:46.593Z,10.42
2017-05-03T07:05:48.025Z,10.63
2017-05-03T07:06:49.477Z,10.77
2017-05-03T07:07:50.902Z,10.71
2017-05-03T07:08:52.334Z,10.91
2017-05-03T07:09:53.761Z,10.78
2017-05-03T07:10:55.192Z,10.66
2017-05-03T07:11:56.617Z,10.73
2017-05-03T07:12:58.041Z,10.70
2017-05-03T07:13:59.472Z,10.51
2017-05-03T07:15:00.899Z,10.74
2017-05-03T07:16:02.326Z,10.84
2017-05-03T07:17:03.750Z,10.98
2017-05-03T07:18:05.189Z,10.80
2017-05-03T07:19:06.618Z,10.73
2017-05-03T07:20:08.050Z,10.62
2017-05-03T07:21:09.476Z,10.68
2017-05-03T07:22:10.903Z,10.77
2017-05-03T07:23:12.329Z,10.91
2017-05-03T07:24:13.762Z,11.19
2017-05-03T07:25:15.198Z,11.20
2017-05-03T07:26:16.628Z,11.32
2017-05-03T07:27:18.058Z,11.20
2017-05-03T07:28:19.485Z,11.44
2017-05-03T07:29:20.925Z,11.50
2017-05-03T07:30:22.349Z,11.46
2017-05-03T07:31:23.781Z,11.50
2017-05-03T07:32:25.203Z,11.46
2017-05-03T07:33:26.637Z,11.59
2017-05-03T07:34:28.067Z,11.78
2017-05-03T07:35:29.504Z,11.93
2017-05-03T07:36:30.940Z,11.93
2017-05-03T07:37:32.375Z,11.83
2017-05-03T07:38:33.824Z,11.97
2017-05-03T07:39:35.260Z,11.99
2017-05-03T07:40:36.691Z,11.62
2017-05-03T07:41:38.116Z,11.28
2017-05-03T07:42:39.552Z,11.06
2017-05-03T07:43:40.983Z,11.11
2017-05-03T07:44:42.427Z,11.32
2017-05-03T07:45:43.852Z,11.36
2017-05-03T07:46:45.282Z,11.53
2017-05-03T07:47:46.711Z,11.43
2017-05-03T07:48:48.131Z,11.14
2017-05-03T07:49:49.577Z,11.41
2017-05-03T07:50:51.165Z,11.49
2017-05-03T07:51:52.592Z,11.59
2017-05-03T07:52:54.028Z,11.64
2017-05-03T07:53:55.460Z,11.77
2017-05-03T07:54:56.888Z,11.89
2017-05-03T07:55:58.321Z,11.87
2017-05-03T07:57:00.538Z,11.97
2017-05-03T07:58:01.962Z,11.94
2017-05-03T07:59:03.393Z,11.93
2017-05-03T08:00:04.820Z,11.87
2017-05-03T08:01:06.251Z,12.12
2017-05-03T08:02:07.685Z,12.01
2017-05-03T08:03:09.108Z,11.90
2017-05-03T08:04:10.537Z,11.89
2017-05-03T08:05:11.969Z,11.94
2017-05-03T08:06:13.406Z,11.93
2017-05-03T08:07:14.847Z,12.09
2017-05-03T08:08:16.274Z,12.09
2017-05-03T08:09:17.704Z,12.20
2017-05-03T08:10:19.133Z,12.33
2017-05-03T08:11:20.557Z,12.29
2017-05-03T08:12:21.996Z,12.33
2017-05-03T08:13:23.421Z,12.46
2017-05-03T08:14:24.856Z,12.51
2017-05-03T08:15:26.288Z,12.21
2017-05-03T08:16:27.716Z,12.39
2017-05-03T08:17:29.141Z,12.19
2017-05-03T08:18:30.572Z,12.38
2017-05-03T08:19:31.999Z,12.29
2017-05-03T08:20:33.429Z,12.23
2017-05-03T08:21:34.867Z,12.31
2017-05-03T08:22:36.296Z,12.49
2017-05-03T08:23:37.723Z,12.56
2017-05-03T08:24:39.156Z,12.45
2017-05-03T08:25:40.591Z,12.64
2017-05-03T08:26:42.017Z,12.71
2017-05-03T08:27:43.452Z,12.89
2017-05-03T08:28:44.879Z,12.97
2017-05-03T08:29:46.311Z,13.02
2017-05-03T08:30:47.737Z,13.12
2017-05-03T08:31:49.165Z,12.97
2017-05-03T08:32:50.593Z,12.92
2017-05-03T08:33:52.029Z,12.92
2017-05-03T08:34:53.462Z,12.87
2017-05-03T08:35:54.894Z,12.99
2017-05-03T08:36:56.322Z,13.02
2017-05-03T08:37:57.754Z,13.18
2017-05-03T08:38:59.180Z,12.99
2017-05-03T08:40:00.610Z,12.77
2017-05-03T08:41:02.046Z,12.77
2017-05-03T08:42:03.480Z,12.85
2017-05-03T08:43:04.902Z,12.66
2017-05-03T08:44:06.331Z,12.67
2017-05-03T08:45:07.763Z,12.85
2017-05-03T08:46:09.195Z,12.88
2017-05-03T08:47:10.619Z,12.56
2017-05-03T08:48:12.050Z,12.67
2017-05-03T08:49:13.480Z,12.75
2017-05-03T08:50:14.916Z,12.82
2017-05-03T08:51:16.340Z,12.96
2017-05-03T08:52:17.793Z,13.06
2017-05-03T08:53:19.265Z,13.24
2017-05-03T08:54:20.702Z,13.25
2017-05-03T08:55:22.132Z,13.27
2017-05-03T08:56:23.583Z,13.41
2017-05-03T08:57:25.013Z,13.54
2017-05-03T08:58:26.443Z,13.51
2017-05-03T08:59:27.872Z,13.49
2017-05-03T09:00:29.323Z,13.77
2017-05-03T09:01:30.752Z,14.04
2017-05-03T09:02:32.195Z,14.31
2017-05-03T09:03:33.637Z,14.27
2017-05-03T09:04:35.099Z,14.14
2017-05-03T09:05:36.527Z,14.53
2017-05-03T09:06:37.968Z,14.65
2017-05-03T09:07:39.401Z,14.37
2017-05-03T09:08:40.839Z,14.38
2017-05-03T09:09:42.272Z,14.39
2017-05-03T09:10:43.699Z,14.57
2017-05-03T09:11:45.209Z,14.49
2017-05-03T09:12:46.641Z,14.44
2017-05-03T09:13:48.076Z,14.34
2017-05-03T09:14:49.537Z,14.24
2017-05-03T09:15:50.969Z,14.27
2017-05-03T09:16:52.398Z,14.19
2017-05-03T09:17:53.914Z,14.12
2017-05-03T09:18:55.340Z,14.42
2017-05-03T09:19:56.774Z,14.72
2017-05-03T09:20:58.203Z,14.94
2017-05-03T09:21:59.679Z,14.93
2017-05-03T09:23:01.114Z,14.83
2017-05-03T09:24:02.539Z,14.78
2017-05-03T09:25:03.970Z,14.83
2017-05-03T09:26:05.402Z,14.74
2017-05-03T09:27:06.836Z,14.84
2017-05-03T09:28:08.267Z,14.60
2017-05-03T09:29:09.743Z,14.68
2017-05-03T09:30:11.184Z,14.46
2017-05-03T09:31:12.611Z,14.57
2017-05-03T09:32:14.042Z,14.32
2017-05-03T09:33:15.469Z,14.39
2017-05-03T09:34:16.902Z,14.42
2017-05-03T09:35:18.340Z,14.52
2017-05-03T09:36:19.816Z,14.32
2017-05-03T09:37:21.250Z,14.53
2017-05-03T09:38:22.685Z,14.56
2017-05-03T09:39:24.111Z,14.44
2017-05-03T09:40:25.655Z,14.32
2017-05-03T09:41:27.097Z,14.25
2017-05-03T09:42:28.526Z,14.43
2017-05-03T09:43:29.959Z,14.53
2017-05-03T09:44:31.395Z,14.56
2017-05-03T09:45:32.831Z,14.32
2017-05-03T09:46:34.264Z,14.34
2017-05-03T09:47:35.768Z,14.56
2017-05-03T09:48:37.211Z,14.53
2017-05-03T09:49:38.671Z,14.53
2017-05-03T09:50:40.077Z,14.57
2017-05-03T09:51:41.511Z,14.62
2017-05-03T09:52:42.942Z,14.42
2017-05-03T09:53:44.371Z,14.47
2017-05-03T09:54:45.848Z,14.27
2017-05-03T09:55:47.280Z,14.12
2017-05-03T09:56:48.712Z,14.50
2017-05-03T09:57:50.148Z,14.57
2017-05-03T09:58:51.579Z,14.57
2017-05-03T09:59:53.133Z,14.57
2017-05-03T10:00:54.571Z,14.27
2017-05-03T10:01:56.006Z,14.12
2017-05-03T10:02:57.443Z,14.31
2017-05-03T10:03:58.875Z,14.29
2017-05-03T10:05:00.312Z,14.10
2017-05-03T10:06:01.787Z,14.14
2017-05-03T10:07:03.214Z,14.19
2017-05-03T10:08:04.650Z,14.34
2017-05-03T10:09:06.091Z,14.31
2017-05-03T10:10:07.525Z,14.50
2017-05-03T10:11:08.957Z,14.42
2017-05-03T10:12:10.383Z,14.43
2017-05-03T10:13:11.839Z,14.46
2017-05-03T10:14:13.345Z,14.10
2017-05-03T10:15:14.777Z,14.12
2017-05-03T10:16:16.205Z,14.10
2017-05-03T10:17:17.631Z,14.13
2017-05-03T10:18:19.088Z,13.98
2017-05-03T10:19:20.492Z,13.89
2017-05-03T10:20:21.939Z,13.92
2017-05-03T10:21:23.408Z,14.02
2017-05-03T10:22:24.838Z,13.91
2017-05-03T10:23:26.261Z,13.88
2017-05-03T10:24:27.703Z,13.91
2017-05-03T10:25:29.148Z,13.83
2017-05-03T10:26:30.580Z,13.92
2017-05-03T10:27:32.009Z,13.91
2017-05-03T10:28:33.447Z,13.96
2017-05-03T10:29:34.924Z,14.01
2017-05-03T10:30:36.367Z,13.98
2017-05-03T10:31:37.805Z,13.98
2017-05-03T10:32:39.736Z,13.94
2017-05-03T10:33:41.178Z,14.19
2017-05-03T10:34:42.615Z,14.29
2017-05-03T10:35:44.040Z,14.19
2017-05-03T10:36:45.477Z,14.20
2017-05-03T10:37:46.908Z,14.20
2017-05-03T10:38:48.338Z,14.28
2017-05-03T10:39:49.772Z,14.25
2017-05-03T10:40:51.209Z,14.31
2017-05-03T10:41:52.645Z,14.53
2017-05-03T10:42:54.069Z,14.62
2017-05-03T10:43:55.500Z,14.62
2017-05-03T10:44:56.927Z,14.67
2017-05-03T10:45:58.367Z,14.67
2017-05-03T10:46:59.795Z,14.57
2017-05-03T10:48:01.225Z,14.80
2017-05-03T10:49:02.651Z,14.69
2017-05-03T10:50:04.092Z,14.84
2017-05-03T10:51:05.515Z,15.03
2017-05-03T10:52:06.951Z,15.21
2017-05-03T10:53:08.379Z,15.27
2017-05-03T10:54:09.822Z,15.28
2017-05-03T10:55:11.264Z,15.20
2017-05-03T10:56:12.688Z,15.35
2017-05-03T10:57:14.122Z,15.72
2017-05-03T10:58:15.557Z,15.78
2017-05-03T10:59:17.007Z,15.79
2017-05-03T11:00:18.438Z,15.99
2017-05-03T11:01:19.878Z,16.09
2017-05-03T11:02:21.305Z,16.07
2017-05-03T11:03:22.735Z,16.01
2017-05-03T11:04:24.159Z,15.89
2017-05-03T11:05:25.588Z,15.79
2017-05-03T11:06:27.021Z,15.82
2017-05-03T11:07:28.456Z,16.03
2017-05-03T11:08:29.885Z,15.94
2017-05-03T11:09:31.329Z,16.03
2017-05-03T11:10:32.770Z,16.25
2017-05-03T11:11:34.201Z,16.23
2017-05-03T11:12:35.637Z,15.96
2017-05-03T11:13:37.071Z,15.67
2017-05-03T11:14:38.499Z,15.81
2017-05-03T11:15:39.932Z,15.79
2017-05-03T11:16:41.360Z,15.76
2017-05-03T11:17:42.795Z,15.70
2017-05-03T11:18:44.230Z,15.66
2017-05-03T11:19:45.664Z,15.81
2017-05-03T11:20:47.103Z,15.94
2017-05-03T11:21:48.529Z,15.75
2017-05-03T11:22:49.961Z,15.75
2017-05-03T11:23:51.402Z,15.66
2017-05-03T11:24:52.837Z,15.86
2017-05-03T11:25:54.268Z,15.94
2017-05-03T11:26:55.730Z,16.00
2017-05-03T11:27:57.188Z,15.67
2017-05-03T11:28:58.606Z,15.74
2017-05-03T11:30:00.035Z,15.63
2017-05-03T11:31:01.578Z,15.57
2017-05-03T11:32:03.073Z,15.51
2017-05-03T11:33:04.504Z,15.56
2017-05-03T11:34:05.939Z,15.82
2017-05-03T11:35:07.409Z,16.15
2017-05-03T11:36:08.844Z,16.59
2017-05-03T11:37:10.270Z,16.68
2017-05-03T11:38:11.717Z,16.92
2017-05-03T11:39:13.179Z,16.52
2017-05-03T11:40:14.610Z,16.16
2017-05-03T11:41:16.043Z,16.09
2017-05-03T11:42:17.540Z,16.37
2017-05-03T11:43:18.981Z,16.63
2017-05-03T11:44:20.413Z,16.74
2017-05-03T11:45:21.850Z,16.86
2017-05-03T11:46:23.327Z,16.98
2017-05-03T11:47:24.772Z,16.95
2017-05-03T11:48:26.198Z,16.60
2017-05-03T11:49:27.633Z,16.53
2017-05-03T11:50:29.067Z,16.58
2017-05-03T11:51:30.499Z,16.80
2017-05-03T11:52:31.924Z,16.81
2017-05-03T11:53:33.362Z,16.68
2017-05-03T11:54:34.793Z,16.49
2017-05-03T11:55:36.224Z,16.80
2017-05-03T11:56:37.655Z,16.89
2017-05-03T11:57:39.092Z,17.07
2017-05-03T11:58:40.527Z,17.14
2017-05-03T11:59:41.966Z,17.13
2017-05-03T12:00:43.421Z,17.14
2017-05-03T12:01:44.848Z,16.93
2017-05-03T12:02:46.283Z,17.13
2017-05-03T12:03:47.800Z,17.06
2017-05-03T12:04:49.241Z,17.23
2017-05-03T12:05:50.676Z,17.18
2017-05-03T12:06:52.139Z,17.69
2017-05-03T12:07:53.570Z,17.78
2017-05-03T12:08:55.048Z,17.78
2017-05-03T12:09:56.481Z,17.87
2017-05-03T12:10:57.921Z,18.04
2017-05-03T12:11:59.356Z,18.09
2017-05-03T12:13:00.791Z,18.04
2017-05-03T12:14:02.226Z,17.95
2017-05-03T12:15:03.697Z,17.99
2017-05-03T12:16:05.137Z,17.73
2017-05-03T12:17:06.569Z,17.85
2017-05-03T12:18:08.011Z,17.97
2017-05-03T12:19:09.447Z,17.79
2017-05-03T12:20:10.885Z,17.89
2017-05-03T12:21:12.313Z,17.85
2017-05-03T12:22:13.807Z,17.99
2017-05-03T12:23:15.237Z,17.89
2017-05-03T12:24:16.682Z,17.63
2017-05-03T12:25:18.115Z,17.40
2017-05-03T12:26:19.554Z,17.70
2017-05-03T12:27:21.008Z,17.62
2017-05-03T12:28:22.437Z,17.69
2017-05-03T12:29:23.875Z,17.76
2017-05-03T12:30:25.377Z,17.69
2017-05-03T12:31:26.810Z,17.47
2017-05-03T12:32:28.243Z,17.43
2017-05-03T12:33:29.678Z,17.26
2017-05-03T12:34:31.130Z,17.11
2017-05-03T12:35:32.562Z,17.63
2017-05-03T12:36:34.004Z,17.89
2017-05-03T12:37:35.441Z,17.97
2017-05-03T12:38:36.885Z,18.03
2017-05-03T12:39:38.323Z,18.21
2017-05-03T12:40:39.765Z,18.34
2017-05-03T12:41:41.255Z,18.33
2017-05-03T12:42:42.695Z,18.36
2017-05-03T12:43:44.127Z,18.55
2017-05-03T12:44:45.633Z,18.52
2017-05-03T12:45:47.069Z,18.76
2017-05-03T12:46:48.494Z,18.74
2017-05-03T12:47:49.931Z,18.73
2017-05-03T12:48:51.405Z,18.83
2017-05-03T12:49:52.809Z,18.91
2017-05-03T12:50:54.238Z,18.65
2017-05-03T12:51:55.719Z,18.21
2017-05-03T12:52:57.158Z,17.87
2017-05-03T12:53:58.583Z,17.84
2017-05-03T12:55:00.046Z,18.06
2017-05-03T12:56:01.456Z,18.09
2017-05-03T12:57:02.896Z,17.66
2017-05-03T12:58:05.092Z,17.59
2017-05-03T12:59:06.530Z,17.78
2017-05-03T13:00:07.964Z,17.76
2017-05-03T13:01:09.400Z,17.70
2017-05-03T13:02:10.835Z,17.47
2017-05-03T13:03:12.280Z,17.71
2017-05-03T13:04:13.714Z,17.71
2017-05-03T13:05:15.152Z,17.73
2017-05-03T13:06:16.585Z,17.66
2017-05-03T13:07:18.014Z,17.76
2017-05-03T13:08:19.460Z,17.73
2017-05-03T13:09:21.681Z,17.53
2017-05-03T13:10:23.127Z,17.30
2017-05-03T13:11:24.551Z,17.03
2017-05-03T13:12:25.986Z,16.98
2017-05-03T13:13:27.407Z,17.03
2017-05-03T13:14:28.844Z,17.06